createdAt,value
2023-05-07T00:02:17.085Z,8.70
2023-05-07T00:04:45.305Z,11.18
2023-05-07T00:07:12.858Z,12.52
2023-05-07T00:09:40.997Z,12.43
2023-05-07T00:12:08.659Z,10.90
2023-05-07T00:14:36.147Z,9.77
2023-05-07T00:17:03.561Z,8.13
2023-05-07T00:19:31.107Z,12.07
2023-05-07T00:21:59.388Z,12.38
2023-05-07T00:24:26.960Z,13.70
2023-05-07T00:26:54.466Z,10.90
2023-05-07T00:29:22.025Z,10.73
2023-05-07T00:31:51.038Z,12.45
2023-05-07T00:34:18.666Z,10.13
2023-05-07T00:36:46.258Z,12.18
2023-05-07T00:39:13.957Z,9.65
2023-05-07T00:41:41.622Z,11.23
2023-05-07T00:44:09.732Z,10.93
2023-05-07T00:46:37.359Z,8.45
2023-05-07T00:49:06.235Z,8.57
2023-05-07T00:51:34.461Z,8.95
2023-05-07T00:54:03.846Z,11.90
2023-05-07T00:56:32.280Z,8.90
2023-05-07T00:59:00.267Z,12.50
2023-05-07T01:01:27.883Z,12.60
2023-05-07T01:03:55.512Z,12.73
2023-05-07T01:06:26.017Z,10.05
2023-05-07T01:08:54.165Z,13.45
2023-05-07T01:11:22.432Z,13.40
2023-05-07T01:13:51.491Z,11.98
2023-05-07T01:16:19.058Z,13.02
2023-05-07T01:18:49.235Z,11.57
2023-05-07T01:21:18.827Z,16.88
2023-05-07T01:23:47.223Z,9.95
2023-05-07T01:26:14.716Z,10.70
2023-05-07T01:28:45.978Z,13.40
2023-05-07T01:31:14.969Z,12.40
2023-05-07T01:33:44.794Z,11.88
2023-05-07T01:36:14.434Z,10.90
2023-05-07T01:38:43.485Z,9.80
2023-05-07T01:41:12.401Z,9.75
2023-05-07T01:43:42.488Z,9.07
2023-05-07T01:46:11.518Z,16.20
2023-05-07T01:48:39.822Z,8.30
2023-05-07T01:51:08.793Z,9.60
2023-05-07T01:53:41.700Z,13.65
2023-05-07T01:56:09.556Z,8.02
2023-05-07T01:58:39.426Z,11.10
2023-05-07T02:01:06.953Z,11.35
2023-05-07T02:03:34.720Z,10.90
2023-05-07T02:06:10.010Z,13.35
2023-05-07T02:08:40.154Z,15.00
2023-05-07T02:11:07.682Z,14.20
2023-05-07T02:13:36.878Z,12.48
2023-05-07T02:16:05.305Z,11.82
2023-05-07T02:18:33.146Z,12.27
2023-05-07T02:21:00.683Z,9.82
2023-05-07T02:23:28.319Z,15.02
2023-05-07T02:25:55.913Z,10.55
2023-05-07T02:28:23.628Z,14.13
2023-05-07T02:31:01.846Z,13.57
2023-05-07T02:33:30.927Z,10.55
2023-05-07T02:36:07.005Z,15.18
2023-05-07T02:41:03.474Z,13.45
2023-05-07T02:43:31.101Z,10.48
2023-05-07T02:46:08.845Z,14.55
2023-05-07T02:48:40.128Z,13.85
2023-05-07T02:51:07.701Z,9.70
2023-05-07T02:53:36.689Z,10.07
2023-05-07T02:56:04.496Z,16.10
2023-05-07T02:58:31.966Z,11.70
2023-05-07T03:01:01.365Z,12.07
2023-05-07T03:03:34.125Z,14.20
2023-05-07T03:06:02.313Z,13.50
2023-05-07T03:08:29.785Z,10.68
2023-05-07T03:10:57.480Z,12.32
2023-05-07T03:13:25.101Z,14.75
2023-05-07T03:15:53.657Z,12.57
2023-05-07T03:18:21.295Z,16.55
2023-05-07T03:20:49.776Z,10.75
2023-05-07T03:23:18.870Z,13.00
2023-05-07T03:25:46.502Z,13.98
2023-05-07T03:28:13.987Z,8.10
2023-05-07T03:30:47.792Z,13.65
2023-05-07T03:33:15.697Z,14.15
2023-05-07T03:35:43.288Z,16.45
2023-05-07T03:38:12.571Z,15.88
2023-05-07T03:40:40.018Z,12.10
2023-05-07T03:43:07.729Z,12.02
2023-05-07T03:45:38.268Z,13.63
2023-05-07T03:48:11.401Z,13.70
2023-05-07T03:50:39.334Z,10.55
2023-05-07T03:53:07.429Z,14.88
2023-05-07T03:55:39.851Z,10.25
2023-05-07T03:58:07.541Z,8.10
2023-05-07T04:00:39.249Z,14.25
2023-05-07T04:03:16.431Z,11.50
2023-05-07T04:05:44.148Z,6.90
2023-05-07T04:08:11.784Z,14.88
2023-05-07T04:10:42.600Z,12.52
2023-05-07T04:13:12.052Z,11.55
2023-05-07T04:15:39.625Z,10.85
2023-05-07T04:18:10.893Z,13.98
2023-05-07T04:20:39.627Z,12.02
2023-05-07T04:23:11.345Z,10.55
2023-05-07T04:25:39.535Z,9.77
2023-05-07T04:28:27.235Z,10.55
2023-05-07T04:30:55.078Z,9.40
2023-05-07T04:33:23.710Z,10.73
2023-05-07T04:35:51.854Z,11.43
2023-05-07T04:38:19.511Z,10.00
2023-05-07T04:40:49.626Z,6.47
2023-05-07T04:43:21.798Z,8.60
2023-05-07T04:45:53.371Z,6.35
2023-05-07T04:48:23.316Z,8.25
2023-05-07T04:50:52.410Z,8.88
2023-05-07T04:53:21.212Z,9.98
2023-05-07T04:55:49.720Z,5.68
2023-05-07T04:58:17.425Z,8.82
2023-05-07T05:00:47.844Z,9.45
2023-05-07T05:03:15.532Z,8.55
2023-05-07T05:05:43.251Z,5.88
2023-05-07T05:08:10.885Z,5.30
2023-05-07T05:10:42.690Z,8.15
2023-05-07T05:13:13.781Z,6.32
2023-05-07T05:15:42.723Z,6.22
2023-05-07T05:18:10.462Z,6.07
2023-05-07T05:20:38.473Z,8.73
2023-05-07T05:23:07.042Z,7.15
2023-05-07T05:25:34.865Z,6.93
2023-05-07T05:28:02.807Z,10.55
2023-05-07T05:30:32.112Z,5.57
2023-05-07T05:32:59.657Z,3.35
2023-05-07T05:35:28.519Z,7.63
2023-05-07T05:37:57.472Z,8.88
2023-05-07T05:40:25.100Z,7.40
2023-05-07T05:42:52.547Z,7.82
2023-05-07T05:45:20.364Z,8.68
2023-05-07T05:47:48.039Z,5.97
2023-05-07T05:50:15.862Z,7.00
2023-05-07T05:52:43.315Z,8.05
2023-05-07T05:55:11.765Z,7.55
2023-05-07T05:57:39.712Z,6.53
2023-05-07T06:00:09.381Z,8.40
2023-05-07T06:02:46.141Z,10.30
2023-05-07T06:05:19.125Z,6.50
2023-05-07T06:07:48.703Z,6.47
2023-05-07T06:10:16.871Z,7.65
2023-05-07T06:12:44.762Z,8.38
2023-05-07T06:15:12.729Z,6.78
2023-05-07T06:17:41.526Z,7.65
2023-05-07T06:20:11.332Z,7.80
2023-05-07T06:22:40.489Z,7.43
2023-05-07T06:25:09.694Z,5.88
2023-05-07T06:27:38.350Z,9.40
2023-05-07T06:30:06.555Z,9.40
2023-05-07T06:32:34.227Z,8.88
2023-05-07T06:35:01.798Z,5.97
2023-05-07T06:37:29.470Z,6.43
2023-05-07T06:40:02.143Z,8.38
2023-05-07T06:42:31.701Z,9.52
2023-05-07T06:45:07.253Z,9.75
2023-05-07T06:47:35.039Z,5.63
2023-05-07T06:50:03.059Z,5.70
2023-05-07T06:52:33.650Z,5.90
2023-05-07T06:55:01.365Z,8.82
2023-05-07T06:57:28.913Z,9.02
2023-05-07T06:59:56.435Z,8.45
2023-05-07T07:02:24.133Z,4.95
2023-05-07T07:04:52.013Z,5.38
2023-05-07T07:07:20.660Z,5.47
2023-05-07T07:09:50.807Z,5.55
2023-05-07T07:12:19.946Z,3.95
2023-05-07T07:14:47.357Z,8.43
2023-05-07T07:17:15.779Z,3.92
2023-05-07T07:19:43.561Z,5.95
2023-05-07T07:22:12.313Z,5.70
2023-05-07T07:24:39.975Z,4.15
2023-05-07T07:27:09.890Z,6.70
2023-05-07T07:29:37.395Z,7.10
2023-05-07T07:32:05.248Z,8.57
2023-05-07T07:34:33.358Z,7.53
2023-05-07T07:37:06.454Z,6.60
2023-05-07T07:39:39.431Z,9.75
2023-05-07T07:42:08.934Z,7.93
2023-05-07T07:44:41.423Z,8.68
2023-05-07T07:47:11.601Z,13.85
2023-05-07T07:49:39.341Z,9.15
2023-05-07T07:52:09.001Z,10.27
2023-05-07T07:54:38.102Z,14.18
2023-05-07T07:57:08.117Z,10.75
2023-05-07T07:59:36.188Z,11.52
2023-05-07T08:02:03.760Z,12.23
2023-05-07T08:04:34.279Z,10.00
2023-05-07T08:07:05.231Z,9.60
2023-05-07T08:09:36.362Z,9.75
2023-05-07T08:12:06.791Z,8.13
2023-05-07T08:14:37.587Z,9.20
2023-05-07T08:17:06.950Z,11.98
2023-05-07T08:19:36.152Z,7.97
2023-05-07T08:22:05.553Z,8.63
2023-05-07T08:24:35.490Z,7.45
2023-05-07T08:27:02.992Z,6.80
2023-05-07T08:29:30.788Z,6.85
2023-05-07T08:31:58.787Z,5.57
2023-05-07T08:34:27.893Z,7.57
2023-05-07T08:36:57.680Z,7.40
2023-05-07T08:39:26.070Z,7.15
2023-05-07T08:41:58.372Z,5.68
2023-05-07T08:44:31.209Z,8.15
2023-05-07T08:47:00.127Z,8.50
2023-05-07T08:49:29.192Z,6.68
2023-05-07T08:51:56.914Z,7.50
2023-05-07T08:54:27.093Z,5.55
2023-05-07T08:56:55.334Z,7.28
2023-05-07T08:59:23.414Z,4.10
2023-05-07T09:01:51.257Z,6.82
2023-05-07T09:04:19.251Z,5.75
2023-05-07T09:06:49.201Z,5.80
2023-05-07T09:09:19.955Z,3.15
2023-05-07T09:11:48.001Z,5.07
2023-05-07T09:14:18.866Z,5.22
2023-05-07T09:16:47.772Z,3.95
2023-05-07T09:19:15.664Z,4.30
2023-05-07T09:21:46.590Z,3.22
2023-05-07T09:24:17.364Z,4.65
2023-05-07T09:26:45.752Z,4.28
2023-05-07T09:29:18.200Z,3.97
2023-05-07T09:31:46.442Z,3.60
2023-05-07T09:34:17.348Z,3.33
2023-05-07T09:36:46.675Z,3.45
2023-05-07T09:39:15.063Z,3.88
2023-05-07T09:41:47.462Z,3.40
2023-05-07T09:44:23.041Z,3.47
2023-05-07T09:46:56.350Z,4.38
2023-05-07T09:49:37.375Z,3.75
2023-05-07T09:52:10.219Z,2.70
2023-05-07T09:54:45.020Z,4.55
2023-05-07T09:57:15.165Z,3.70
2023-05-07T09:59:47.221Z,5.60
2023-05-07T10:02:21.236Z,3.13
2023-05-07T10:04:53.890Z,3.25
2023-05-07T10:07:26.558Z,3.78
2023-05-07T10:10:00.509Z,5.75
2023-05-07T10:12:40.271Z,4.82
2023-05-07T10:15:15.726Z,3.47
2023-05-07T10:17:49.563Z,4.18
2023-05-07T10:20:17.946Z,4.10
2023-05-07T10:22:49.735Z,4.55
2023-05-07T10:25:31.568Z,3.13
2023-05-07T10:28:09.859Z,4.22
2023-05-07T10:31:16.100Z,4.97
2023-05-07T10:33:49.471Z,4.63
2023-05-07T10:36:19.449Z,4.82
2023-05-07T10:38:48.191Z,2.63
2023-05-07T10:41:19.709Z,5.10
2023-05-07T10:43:48.363Z,4.70
2023-05-07T10:46:26.802Z,5.20
2023-05-07T10:49:09.304Z,4.80
2023-05-07T10:51:46.918Z,3.88
2023-05-07T10:54:28.432Z,3.78
2023-05-07T10:57:48.035Z,4.47
2023-05-07T11:00:37.997Z,4.82
2023-05-07T11:03:09.027Z,4.93
2023-05-07T11:05:46.670Z,4.88
2023-05-07T11:08:53.175Z,5.55
2023-05-07T11:11:47.952Z,5.60
2023-05-07T11:14:42.333Z,9.15
2023-05-07T11:17:13.988Z,6.20
2023-05-07T11:19:56.164Z,6.95
2023-05-07T11:22:49.841Z,6.40
2023-05-07T11:25:44.112Z,6.22
2023-05-07T11:28:18.115Z,8.30
2023-05-07T11:30:54.037Z,6.65
2023-05-07T11:33:23.581Z,5.97
2023-05-07T11:35:57.249Z,6.03
2023-05-07T11:38:32.256Z,6.90
2023-05-07T11:41:05.280Z,4.70
2023-05-07T11:43:33.919Z,5.60
2023-05-07T11:46:10.257Z,4.78
2023-05-07T11:48:38.440Z,5.07
2023-05-07T11:51:07.632Z,6.45
2023-05-07T11:53:43.746Z,4.72
2023-05-07T11:56:16.685Z,5.80
2023-05-07T11:58:46.461Z,6.32
2023-05-07T12:01:15.008Z,5.70
2023-05-07T12:03:44.150Z,7.13
2023-05-07T12:06:12.877Z,7.60
2023-05-07T12:08:42.096Z,8.45
2023-05-07T12:11:14.006Z,9.10
2023-05-07T12:13:42.565Z,8.45
2023-05-07T12:16:10.450Z,10.25
2023-05-07T12:18:38.896Z,11.07
2023-05-07T12:21:07.768Z,11.50
2023-05-07T12:23:37.502Z,7.90
2023-05-07T12:26:07.374Z,7.63
2023-05-07T12:28:40.069Z,8.27
2023-05-07T12:31:08.693Z,9.20
2023-05-07T12:33:37.033Z,4.95
2023-05-07T12:36:08.684Z,5.93
2023-05-07T12:38:41.079Z,9.50
2023-05-07T12:41:11.042Z,12.68
2023-05-07T12:43:39.346Z,11.70
2023-05-07T12:46:09.097Z,7.90
2023-05-07T12:48:45.827Z,6.05
2023-05-07T12:51:14.692Z,6.50
2023-05-07T12:53:45.645Z,6.90
2023-05-07T12:56:13.444Z,8.80
2023-05-07T12:58:40.950Z,9.65
2023-05-07T13:01:11.175Z,11.60
2023-05-07T13:03:39.864Z,9.52
2023-05-07T13:06:11.150Z,10.35
2023-05-07T13:08:42.522Z,6.45
2023-05-07T13:11:11.391Z,4.65
2023-05-07T13:13:40.921Z,7.35
2023-05-07T13:16:10.652Z,6.43
2023-05-07T13:18:40.793Z,5.82
2023-05-07T13:21:14.438Z,7.68
2023-05-07T13:23:42.329Z,8.57
2023-05-07T13:26:22.418Z,6.20
2023-05-07T13:28:55.218Z,6.25
2023-05-07T13:31:22.780Z,3.83
2023-05-07T13:33:50.696Z,8.80
2023-05-07T13:36:18.157Z,4.30
2023-05-07T13:38:45.694Z,5.95
2023-05-07T13:41:14.223Z,6.78
2023-05-07T13:43:41.726Z,4.90
2023-05-07T13:46:09.518Z,5.43
2023-05-07T13:48:37.588Z,4.03
2023-05-07T13:51:05.709Z,3.85
2023-05-07T13:53:33.206Z,3.90
2023-05-07T13:56:00.631Z,3.42
2023-05-07T13:58:28.038Z,5.10
2023-05-07T14:00:55.605Z,4.03
2023-05-07T14:03:23.395Z,3.22
2023-05-07T14:05:50.919Z,3.55
2023-05-07T14:08:21.023Z,4.18
2023-05-07T14:10:48.479Z,4.72
2023-05-07T14:13:16.208Z,3.20
2023-05-07T14:15:47.571Z,2.95
2023-05-07T14:18:15.411Z,5.90
2023-05-07T14:20:44.950Z,4.15
2023-05-07T14:23:12.546Z,4.00
2023-05-07T14:25:40.079Z,2.72
2023-05-07T14:28:08.876Z,5.45
2023-05-07T14:30:36.653Z,3.63
2023-05-07T14:33:04.438Z,4.93
2023-05-07T14:35:31.961Z,2.83
2023-05-07T14:37:59.484Z,3.60
2023-05-07T14:40:27.006Z,4.97
2023-05-07T14:42:54.636Z,5.20
2023-05-07T14:45:22.601Z,4.25
2023-05-07T14:47:50.532Z,3.50
2023-05-07T14:50:17.982Z,5.13
2023-05-07T14:52:45.450Z,4.30
2023-05-07T14:55:13.376Z,3.78
2023-05-07T14:57:41.505Z,5.43
2023-05-07T15:00:10.699Z,3.78
2023-05-07T15:02:38.402Z,2.92
2023-05-07T15:05:06.481Z,3.58
2023-05-07T15:07:35.433Z,4.28
2023-05-07T15:10:02.929Z,3.13
2023-05-07T15:12:31.005Z,4.15
2023-05-07T15:14:58.495Z,5.75
2023-05-07T15:17:26.109Z,3.90
2023-05-07T15:19:54.464Z,4.03
2023-05-07T15:22:22.785Z,4.15
2023-05-07T15:24:50.202Z,3.55
2023-05-07T15:27:18.326Z,3.60
2023-05-07T15:29:46.108Z,4.28
2023-05-07T15:32:14.513Z,7.63
2023-05-07T15:34:42.432Z,5.22
2023-05-07T15:37:10.036Z,5.40
2023-05-07T15:39:37.417Z,4.03
2023-05-07T15:42:05.049Z,7.47
2023-05-07T15:44:35.535Z,6.18
2023-05-07T15:47:03.396Z,3.55
2023-05-07T15:49:31.210Z,2.22
2023-05-07T15:51:58.900Z,4.82
2023-05-07T15:54:26.500Z,7.18
2023-05-07T15:56:53.947Z,4.18
2023-05-07T15:59:21.786Z,6.05
2023-05-07T16:01:50.050Z,4.40
2023-05-07T16:04:17.603Z,6.13
2023-05-07T16:06:47.568Z,5.82
2023-05-07T16:09:15.367Z,4.63
2023-05-07T16:11:42.997Z,6.05
2023-05-07T16:14:10.441Z,5.35
2023-05-07T16:16:39.551Z,6.72
2023-05-07T16:19:07.419Z,3.78
2023-05-07T16:21:35.625Z,7.93
2023-05-07T16:24:03.160Z,4.47
2023-05-07T16:26:30.960Z,4.32
2023-05-07T16:28:58.919Z,4.63
2023-05-07T16:31:26.563Z,6.57
2023-05-07T16:33:54.121Z,8.25
2023-05-07T16:36:21.625Z,6.68
2023-05-07T16:38:49.066Z,7.55
2023-05-07T16:41:16.630Z,5.25
2023-05-07T16:43:44.083Z,3.85
2023-05-07T16:46:11.610Z,4.35
2023-05-07T16:48:39.218Z,5.88
2023-05-07T16:51:08.221Z,4.18
2023-05-07T16:53:36.054Z,7.18
2023-05-07T16:56:06.755Z,6.47
2023-05-07T16:58:34.551Z,6.60
2023-05-07T17:01:02.702Z,6.97
2023-05-07T17:03:32.311Z,8.73
2023-05-07T17:06:00.053Z,11.65
2023-05-07T17:08:27.550Z,6.35
2023-05-07T17:10:55.108Z,6.18
2023-05-07T17:13:22.693Z,9.20
2023-05-07T17:15:50.430Z,7.70
2023-05-07T17:18:17.903Z,8.57
2023-05-07T17:20:45.412Z,6.45
2023-05-07T17:23:14.040Z,4.78
2023-05-07T17:25:45.692Z,10.32
2023-05-07T17:28:13.655Z,9.95
2023-05-07T17:30:41.895Z,8.07
2023-05-07T17:33:20.164Z,8.20
2023-05-07T17:35:48.905Z,6.32
2023-05-07T17:38:16.491Z,10.15
2023-05-07T17:40:43.972Z,7.05
2023-05-07T17:43:11.555Z,8.60
2023-05-07T17:45:39.216Z,11.18
2023-05-07T17:48:07.005Z,8.20
2023-05-07T17:50:34.495Z,7.68
2023-05-07T17:53:02.150Z,6.13
2023-05-07T17:55:32.832Z,7.88
2023-05-07T17:58:00.574Z,10.35
2023-05-07T18:00:28.071Z,13.50
2023-05-07T18:02:55.699Z,11.45
2023-05-07T18:05:23.292Z,10.70
2023-05-07T18:07:50.853Z,12.75
2023-05-07T18:10:19.958Z,9.13
2023-05-07T18:12:47.453Z,8.50
2023-05-07T18:15:15.176Z,8.38
2023-05-07T18:17:42.657Z,9.52
2023-05-07T18:20:11.814Z,13.18
2023-05-07T18:22:39.644Z,8.52
2023-05-07T18:25:07.880Z,9.15
2023-05-07T18:27:35.603Z,12.13
2023-05-07T18:30:03.449Z,10.32
2023-05-07T18:32:30.923Z,7.85
2023-05-07T18:34:58.625Z,8.25
2023-05-07T18:37:26.848Z,10.60
2023-05-07T18:39:54.438Z,8.27
2023-05-07T18:42:21.919Z,8.70
2023-05-07T18:44:50.604Z,12.63
2023-05-07T18:47:18.163Z,12.65
2023-05-07T18:49:45.611Z,9.13
2023-05-07T18:52:13.057Z,11.93
2023-05-07T18:54:40.646Z,10.00
2023-05-07T18:57:08.062Z,9.98
2023-05-07T18:59:35.618Z,13.05
2023-05-07T19:02:03.608Z,10.88
2023-05-07T19:04:31.258Z,13.13
2023-05-07T19:06:58.836Z,9.13
2023-05-07T19:09:26.305Z,8.70
2023-05-07T19:11:55.360Z,10.13
2023-05-07T19:14:22.832Z,9.70
2023-05-07T19:16:50.261Z,12.05
2023-05-07T19:19:17.777Z,9.07
2023-05-07T19:21:45.317Z,12.18
2023-05-07T19:24:12.863Z,7.65
2023-05-07T19:26:41.109Z,6.90
2023-05-07T19:29:17.576Z,6.82
2023-05-07T19:31:46.057Z,12.00
2023-05-07T19:34:14.283Z,8.52
2023-05-07T19:36:42.006Z,7.68
2023-05-07T19:39:09.580Z,8.13
2023-05-07T19:41:37.213Z,12.73
2023-05-07T19:44:04.940Z,6.85
2023-05-07T19:46:32.564Z,12.20
2023-05-07T19:49:01.501Z,8.48
2023-05-07T19:51:32.519Z,12.65
2023-05-07T19:54:00.298Z,8.05
2023-05-07T19:56:27.925Z,12.60
2023-05-07T19:58:55.630Z,13.02
2023-05-07T20:01:23.095Z,10.10
2023-05-07T20:03:50.709Z,9.18
2023-05-07T20:06:18.219Z,9.75
2023-05-07T20:08:45.803Z,11.85
2023-05-07T20:11:14.270Z,12.68
2023-05-07T20:13:41.889Z,10.38
2023-05-07T20:16:09.585Z,6.72
2023-05-07T20:18:37.301Z,8.55
2023-05-07T20:21:05.209Z,10.88
2023-05-07T20:23:33.357Z,12.75
2023-05-07T20:26:00.970Z,9.77
2023-05-07T20:28:28.591Z,11.68
2023-05-07T20:30:56.097Z,9.57
2023-05-07T20:33:23.701Z,10.48
2023-05-07T20:35:51.093Z,7.45
2023-05-07T20:38:18.727Z,13.75
2023-05-07T20:40:46.220Z,11.63
2023-05-07T20:43:13.733Z,8.88
2023-05-07T20:45:41.277Z,7.40
2023-05-07T20:48:08.757Z,8.02
2023-05-07T20:50:36.313Z,14.85
2023-05-07T20:53:03.859Z,8.23
2023-05-07T20:55:31.336Z,13.00
2023-05-07T20:57:58.840Z,13.35
2023-05-07T21:00:26.280Z,4.95
2023-05-07T21:02:54.087Z,11.82
2023-05-07T21:05:21.811Z,13.52
2023-05-07T21:07:49.333Z,7.22
2023-05-07T21:10:16.820Z,9.77
2023-05-07T21:12:44.327Z,9.55
2023-05-07T21:15:14.142Z,11.52
2023-05-07T21:17:41.631Z,11.10
2023-05-07T21:20:09.477Z,8.65
2023-05-07T21:22:37.130Z,8.85
2023-05-07T21:25:04.943Z,13.48
2023-05-07T21:27:32.483Z,10.20
2023-05-07T21:30:04.883Z,9.20
2023-05-07T21:32:32.682Z,13.88
2023-05-07T21:35:01.026Z,9.38
2023-05-07T21:37:28.692Z,9.80
2023-05-07T21:39:56.294Z,12.38
2023-05-07T21:42:25.347Z,13.85
2023-05-07T21:44:52.771Z,13.57
2023-05-07T21:47:20.424Z,8.70
2023-05-07T21:49:47.930Z,11.00
2023-05-07T21:52:17.193Z,8.15
2023-05-07T21:54:44.639Z,13.30
2023-05-07T21:57:12.122Z,9.32
2023-05-07T21:59:39.487Z,11.45
2023-05-07T22:02:06.988Z,10.07
2023-05-07T22:04:34.488Z,8.68
2023-05-07T22:07:02.127Z,9.07
2023-05-07T22:09:29.571Z,10.23
2023-05-07T22:11:57.101Z,6.63
2023-05-07T22:14:24.577Z,9.93
2023-05-07T22:16:52.144Z,10.73
2023-05-07T22:19:19.757Z,7.75
2023-05-07T22:21:47.264Z,10.20
2023-05-07T22:24:15.457Z,6.30
2023-05-07T22:26:42.982Z,11.32
2023-05-07T22:29:10.410Z,6.53
2023-05-07T22:31:37.926Z,7.53
2023-05-07T22:34:05.413Z,10.93
2023-05-07T22:36:33.366Z,9.80
2023-05-07T22:39:01.532Z,9.80
2023-05-07T22:41:29.024Z,7.72
2023-05-07T22:43:56.445Z,11.48
2023-05-07T22:46:24.077Z,7.53
2023-05-07T22:48:51.811Z,7.15
2023-05-07T22:51:19.337Z,12.77
2023-05-07T22:53:46.752Z,7.85
2023-05-07T22:56:14.409Z,6.95
2023-05-07T22:58:41.792Z,9.77
2023-05-07T23:01:14.046Z,5.45
2023-05-07T23:03:41.732Z,11.15
2023-05-07T23:06:09.404Z,7.15
2023-05-07T23:08:36.982Z,9.52
2023-05-07T23:11:04.526Z,8.95
2023-05-07T23:13:33.843Z,7.30
2023-05-07T23:16:01.385Z,7.65
2023-05-07T23:18:30.349Z,11.05
2023-05-07T23:20:57.918Z,5.30
2023-05-07T23:23:25.417Z,7.88
2023-05-07T23:25:53.284Z,8.02
2023-05-07T23:28:20.768Z,7.97
2023-05-07T23:30:48.310Z,6.93
2023-05-07T23:33:16.053Z,7.82
2023-05-07T23:35:43.529Z,9.98
2023-05-07T23:38:11.000Z,8.63
2023-05-07T23:40:38.353Z,12.48
2023-05-07T23:43:05.894Z,5.38
2023-05-07T23:45:33.498Z,8.80
2023-05-07T23:48:01.091Z,5.72
2023-05-07T23:50:28.490Z,4.43
2023-05-07T23:52:55.900Z,10.68
2023-05-07T23:55:23.384Z,7.97
2023-05-07T23:57:51.111Z,6.72
